Time;durP1;ratioP1;P1;durP2;ratioP2;P2;SDS_P1;SDS_P2;PMS_P1;PMS_P2;Temp;Humidity;BMP_temperature;BMP_pressure;BME280_temperature;BME280_humidity;BME280_pressure;Samples;Min_cycle;Max_cycle;Signal;HPM_P1;HPM_P2
2022/04/30 00:02:10;;;;;;;4.67;4.27;;;;;;;;;;5006464;28;20541;-54
2022/04/30 00:04:59;;;;;;;4.70;4.30;;;;;;;;;;5005562;28;20182;-53
2022/04/30 00:07:37;;;;;;;5.27;4.87;;;;;;;;;;5006344;28;20186;-52
2022/04/30 00:10:09;;;;;;;5.07;4.57;;;;;;;;;;5009754;28;20194;-54
2022/04/30 00:12:39;;;;;;;5.40;4.90;;;;;;;;;;5001794;28;20228;-54
2022/04/30 00:15:12;;;;;;;5.10;4.70;;;;;;;;;;5005600;28;20637;-54
2022/04/30 00:17:38;;;;;;;4.80;4.20;;;;;;;;;;5008079;28;20320;-55
2022/04/30 00:20:13;;;;;;;5.53;4.37;;;;;;;;;;5006221;28;20210;-54
2022/04/30 00:22:39;;;;;;;5.23;4.73;;;;;;;;;;5008339;28;20240;-53
2022/04/30 00:25:07;;;;;;;5.47;4.50;;;;;;;;;;5009602;28;20166;-53
2022/04/30 00:27:34;;;;;;;4.87;4.13;;;;;;;;;;5008389;28;20788;-53
2022/04/30 00:30:01;;;;;;;4.63;4.27;;;;;;;;;;5005463;28;20262;-53
2022/04/30 00:32:27;;;;;;;4.93;4.43;;;;;;;;;;5005712;28;20890;-53
2022/04/30 00:34:53;;;;;;;4.80;4.40;;;;;;;;;;5008581;28;20586;-54
2022/04/30 00:37:26;;;;;;;5.97;4.03;;;;;;;;;;5004050;28;20183;-54
2022/04/30 00:39:52;;;;;;;4.60;4.20;;;;;;;;;;5005385;28;20220;-54
2022/04/30 00:42:18;;;;;;;4.83;4.43;;;;;;;;;;5008236;28;20525;-52
2022/04/30 00:44:47;;;;;;;4.70;4.30;;;;;;;;;;5008859;28;20636;-53
2022/04/30 00:47:20;;;;;;;4.87;4.47;;;;;;;;;;5005217;28;20669;-53
2022/04/30 00:49:49;;;;;;;5.90;4.80;;;;;;;;;;4989352;28;20183;-53
2022/04/30 00:52:17;;;;;;;4.37;4.00;;;;;;;;;;5021843;28;20481;-53
2022/04/30 00:54:47;;;;;;;4.53;4.23;;;;;;;;;;5009105;28;20194;-53
2022/04/30 00:57:14;;;;;;;4.63;4.23;;;;;;;;;;5003432;28;20183;-53
2022/04/30 00:59:41;;;;;;;5.20;4.20;;;;;;;;;;4999799;28;20167;-53
2022/04/30 01:02:11;;;;;;;4.77;4.37;;;;;;;;;;5004776;28;20574;-53
2022/04/30 01:04:37;;;;;;;4.77;4.37;;;;;;;;;;5007633;28;20206;-53
2022/04/30 01:07:05;;;;;;;4.83;4.33;;;;;;;;;;5004686;28;20974;-53
2022/04/30 01:09:32;;;;;;;4.93;4.43;;;;;;;;;;5006591;28;20182;-54
2022/04/30 01:12:08;;;;;;;4.37;3.97;;;;;;;;;;5004761;28;20183;-54
2022/04/30 01:14:34;;;;;;;6.53;4.30;;;;;;;;;;4997141;28;20202;-54
2022/04/30 01:17:05;;;;;;;4.67;3.80;;;;;;;;;;5005171;28;20179;-53
2022/04/30 01:19:34;;;;;;;4.50;4.10;;;;;;;;;;5000468;28;20258;-53
2022/04/30 01:22:33;;;;;;;5.10;4.60;;;;;;;;;;4988598;28;20179;-53
2022/04/30 01:25:00;;;;;;;4.47;4.07;;;;;;;;;;4995849;28;20193;-53
2022/04/30 01:27:28;;;;;;;4.37;3.97;;;;;;;;;;5006986;28;20644;-53
2022/04/30 01:29:55;;;;;;;4.67;4.27;;;;;;;;;;5006872;28;20193;-53
2022/04/30 01:38:10;;;;;;;4.70;4.30;;;;;;;;;;5000989;28;20177;-53
2022/04/30 01:40:36;;;;;;;4.50;3.73;;;;;;;;;;5003220;28;20170;-54
2022/04/30 01:43:05;;;;;;;4.43;3.90;;;;;;;;;;5007539;28;20177;-54
2022/04/30 01:45:33;;;;;;;4.10;3.70;;;;;;;;;;4990992;28;20174;-53
2022/04/30 01:47:59;;;;;;;4.27;3.93;;;;;;;;;;5000492;28;20166;-53
2022/04/30 01:50:26;;;;;;;3.87;3.53;;;;;;;;;;5008187;28;20173;-53
2022/04/30 01:52:52;;;;;;;5.17;3.73;;;;;;;;;;5005414;28;20190;-53
2022/04/30 01:55:18;;;;;;;4.03;3.70;;;;;;;;;;5007604;28;20198;-53
2022/04/30 01:57:44;;;;;;;4.60;4.20;;;;;;;;;;5003161;28;20439;-53
2022/04/30 02:00:12;;;;;;;4.47;3.97;;;;;;;;;;5002594;28;20401;-53
2022/04/30 02:02:40;;;;;;;4.70;4.20;;;;;;;;;;5007868;28;20430;-53
2022/04/30 02:05:08;;;;;;;5.97;3.90;;;;;;;;;;5005919;28;20189;-53
2022/04/30 02:07:41;;;;;;;4.50;3.57;;;;;;;;;;5005972;28;20174;-54
2022/04/30 02:10:11;;;;;;;3.83;3.53;;;;;;;;;;5006703;28;20174;-53
2022/04/30 02:12:41;;;;;;;3.70;3.40;;;;;;;;;;5009501;28;20256;-53
2022/04/30 02:15:09;;;;;;;4.23;3.70;;;;;;;;;;4999958;28;20205;-53
2022/04/30 02:17:41;;;;;;;4.60;4.20;;;;;;;;;;5003328;28;20174;-53
2022/04/30 02:22:58;;;;;;;5.83;4.20;;;;;;;;;;5005653;28;20213;-53
2022/04/30 02:25:25;;;;;;;4.47;3.73;;;;;;;;;;5007494;28;20525;-53
2022/04/30 02:28:04;;;;;;;3.80;3.50;;;;;;;;;;5003603;28;20182;-53
2022/04/30 02:30:31;;;;;;;3.80;3.57;;;;;;;;;;5006438;28;20183;-53
2022/04/30 02:33:01;;;;;;;3.67;3.30;;;;;;;;;;5001847;28;20231;-53
2022/04/30 02:35:34;;;;;;;3.90;3.43;;;;;;;;;;5007203;28;20341;-53
2022/04/30 02:38:01;;;;;;;3.77;3.20;;;;;;;;;;5002585;28;20184;-52
2022/04/30 02:40:28;;;;;;;3.90;3.53;;;;;;;;;;4989580;28;20187;-53
2022/04/30 02:42:57;;;;;;;4.07;3.77;;;;;;;;;;5006287;28;20189;-53
2022/04/30 02:45:24;;;;;;;4.53;4.13;;;;;;;;;;5007271;28;20190;-52
2022/04/30 02:47:56;;;;;;;5.07;4.20;;;;;;;;;;5001698;28;20188;-53
2022/04/30 02:50:23;;;;;;;3.97;3.67;;;;;;;;;;5005623;28;20198;-53
2022/04/30 02:52:54;;;;;;;4.47;4.07;;;;;;;;;;5004170;28;20189;-53
2022/04/30 02:55:23;;;;;;;4.40;4.00;;;;;;;;;;5006967;28;20238;-53
2022/04/30 03:00:39;;;;;;;4.43;4.00;;;;;;;;;;5006835;28;20699;-53
2022/04/30 03:03:09;;;;;;;4.20;3.80;;;;;;;;;;5001076;28;20819;-53
2022/04/30 03:05:40;;;;;;;4.90;4.03;;;;;;;;;;5005424;28;20415;-53
2022/04/30 03:08:18;;;;;;;4.50;4.10;;;;;;;;;;5000566;28;20183;-53
2022/04/30 03:10:44;;;;;;;4.83;4.13;;;;;;;;;;5005607;28;20184;-53
2022/04/30 03:13:11;;;;;;;5.37;4.10;;;;;;;;;;5006790;28;20190;-53
2022/04/30 03:15:39;;;;;;;5.67;3.97;;;;;;;;;;5008199;28;20175;-53
2022/04/30 03:23:44;;;;;;;4.37;3.97;;;;;;;;;;4991438;28;20438;-53
2022/04/30 03:26:11;;;;;;;7.10;6.67;;;;;;;;;;5006815;28;20183;-53
2022/04/30 03:28:38;;;;;;;5.83;4.03;;;;;;;;;;5006689;28;20635;-53
2022/04/30 03:31:08;;;;;;;4.93;4.43;;;;;;;;;;5007307;28;20175;-53
2022/04/30 03:33:40;;;;;;;4.00;3.70;;;;;;;;;;5004372;28;20689;-53
2022/04/30 03:36:06;;;;;;;4.40;3.90;;;;;;;;;;5007040;28;20182;-53
2022/04/30 03:38:32;;;;;;;4.23;3.80;;;;;;;;;;5008770;28;20664;-53
2022/04/30 03:40:58;;;;;;;5.03;4.53;;;;;;;;;;5009241;28;20186;-53
2022/04/30 03:43:31;;;;;;;6.17;5.70;;;;;;;;;;5009564;28;20731;-53
2022/04/30 03:45:57;;;;;;;3.57;3.27;;;;;;;;;;5009462;28;20962;-53
2022/04/30 03:48:23;;;;;;;4.20;3.90;;;;;;;;;;5005006;28;20182;-53
2022/04/30 03:50:50;;;;;;;5.07;4.60;;;;;;;;;;5009049;28;20224;-53
2022/04/30 03:53:16;;;;;;;4.63;4.03;;;;;;;;;;5003747;28;20198;-53
2022/04/30 03:55:43;;;;;;;4.83;4.33;;;;;;;;;;5010437;28;20182;-53
2022/04/30 03:58:09;;;;;;;5.50;4.53;;;;;;;;;;5010256;28;20257;-53
2022/04/30 04:00:35;;;;;;;5.20;4.70;;;;;;;;;;5010501;28;20662;-53
2022/04/30 04:03:01;;;;;;;5.17;4.40;;;;;;;;;;5008907;28;20215;-53
2022/04/30 04:05:28;;;;;;;4.93;4.43;;;;;;;;;;5010576;28;20190;-53
2022/04/30 04:07:56;;;;;;;4.97;4.47;;;;;;;;;;5006902;28;22277;-53
2022/04/30 04:10:22;;;;;;;4.90;3.87;;;;;;;;;;5010277;28;20193;-53
2022/04/30 04:12:48;;;;;;;4.73;4.33;;;;;;;;;;5006278;28;20187;-53
2022/04/30 04:17:59;;;;;;;5.30;4.80;;;;;;;;;;5005343;28;20205;-53
2022/04/30 04:20:25;;;;;;;4.57;4.17;;;;;;;;;;5009078;28;20179;-53
2022/04/30 04:22:55;;;;;;;4.63;4.23;;;;;;;;;;5008583;28;20182;-53
2022/04/30 04:28:06;;;;;;;4.50;3.87;;;;;;;;;;5007251;28;20186;-53
2022/04/30 04:30:33;;;;;;;4.97;4.50;;;;;;;;;;5009924;28;20191;-53
2022/04/30 04:33:00;;;;;;;4.93;4.43;;;;;;;;;;5007051;28;20265;-53
2022/04/30 04:35:26;;;;;;;5.07;4.57;;;;;;;;;;5010221;28;20226;-53
2022/04/30 04:37:52;;;;;;;5.03;3.83;;;;;;;;;;5008254;28;20183;-53
2022/04/30 04:40:19;;;;;;;4.37;4.07;;;;;;;;;;5009047;28;20181;-53
2022/04/30 04:42:48;;;;;;;5.47;4.63;;;;;;;;;;5010035;28;20219;-53
2022/04/30 04:45:14;;;;;;;6.10;4.10;;;;;;;;;;5010054;28;20191;-53
2022/04/30 04:47:42;;;;;;;4.57;3.97;;;;;;;;;;5006456;28;20187;-53
2022/04/30 04:50:12;;;;;;;5.90;4.60;;;;;;;;;;5009042;28;20190;-53
2022/04/30 04:52:38;;;;;;;6.43;5.83;;;;;;;;;;5006306;28;20183;-53
2022/04/30 04:55:05;;;;;;;4.40;4.00;;;;;;;;;;5008203;28;20194;-53
2022/04/30 04:57:31;;;;;;;5.60;4.67;;;;;;;;;;5004761;28;20713;-53
2022/04/30 04:59:57;;;;;;;4.60;4.20;;;;;;;;;;5008969;28;20712;-53
2022/04/30 05:02:23;;;;;;;5.97;5.53;;;;;;;;;;5005601;28;20285;-53
2022/04/30 05:04:49;;;;;;;4.67;4.20;;;;;;;;;;5007839;28;20240;-53
2022/04/30 05:07:18;;;;;;;4.63;4.13;;;;;;;;;;5004079;28;20199;-52
2022/04/30 05:09:44;;;;;;;4.37;3.97;;;;;;;;;;5007283;28;20201;-53
2022/04/30 05:12:11;;;;;;;5.00;4.60;;;;;;;;;;5005424;28;20202;-53
2022/04/30 05:14:37;;;;;;;4.40;4.00;;;;;;;;;;5008666;28;20211;-53
2022/04/30 05:17:04;;;;;;;4.60;4.17;;;;;;;;;;5007361;28;20183;-53
2022/04/30 05:19:30;;;;;;;5.57;4.70;;;;;;;;;;5007719;28;20711;-53
2022/04/30 05:21:56;;;;;;;4.60;4.20;;;;;;;;;;5006081;28;20192;-53
2022/04/30 05:24:22;;;;;;;5.33;4.23;;;;;;;;;;5005959;28;20216;-53
2022/04/30 05:26:48;;;;;;;5.90;4.23;;;;;;;;;;5005346;28;20218;-53
2022/04/30 05:29:15;;;;;;;6.43;4.07;;;;;;;;;;5009453;28;20241;-53
2022/04/30 05:31:41;;;;;;;4.63;4.10;;;;;;;;;;5010573;28;20193;-53
2022/04/30 05:34:11;;;;;;;5.10;4.60;;;;;;;;;;5005482;28;20790;-53
2022/04/30 05:36:38;;;;;;;5.87;4.80;;;;;;;;;;5008515;28;20186;-53
2022/04/30 05:39:07;;;;;;;7.00;5.60;;;;;;;;;;5023953;28;20174;-53
2022/04/30 05:41:33;;;;;;;5.37;4.47;;;;;;;;;;5007059;28;20263;-53
2022/04/30 05:44:00;;;;;;;4.93;4.43;;;;;;;;;;5007565;28;20186;-53
2022/04/30 05:46:26;;;;;;;5.07;4.10;;;;;;;;;;5027699;28;20187;-53
2022/04/30 05:48:58;;;;;;;4.50;4.10;;;;;;;;;;5006761;28;20673;-53
2022/04/30 05:51:24;;;;;;;6.67;4.67;;;;;;;;;;5024917;28;20174;-53
2022/04/30 05:53:50;;;;;;;4.40;4.00;;;;;;;;;;5009867;28;20260;-53
2022/04/30 05:56:16;;;;;;;5.13;4.63;;;;;;;;;;5008909;28;20180;-53
2022/04/30 05:58:42;;;;;;;5.83;4.87;;;;;;;;;;5019183;28;20178;-53
2022/04/30 06:01:09;;;;;;;5.50;5.00;;;;;;;;;;5004195;28;20727;-53
2022/04/30 06:03:35;;;;;;;5.13;4.63;;;;;;;;;;5003791;28;20202;-53
2022/04/30 06:06:04;;;;;;;5.23;4.33;;;;;;;;;;5004513;28;20179;-53
2022/04/30 06:08:30;;;;;;;5.37;4.87;;;;;;;;;;5000862;28;20314;-53
2022/04/30 06:11:00;;;;;;;5.33;4.03;;;;;;;;;;5003994;28;20194;-53
2022/04/30 06:13:26;;;;;;;5.37;4.10;;;;;;;;;;5002503;28;20190;-52
2022/04/30 06:15:52;;;;;;;6.03;4.97;;;;;;;;;;5000791;28;20188;-53
2022/04/30 06:18:21;;;;;;;5.33;4.83;;;;;;;;;;4998777;28;20182;-53
2022/04/30 06:20:47;;;;;;;6.47;4.70;;;;;;;;;;4998301;28;20273;-53
2022/04/30 06:23:19;;;;;;;5.27;4.77;;;;;;;;;;4997316;28;20739;-54
2022/04/30 06:25:45;;;;;;;5.37;4.87;;;;;;;;;;4996795;28;20182;-53
2022/04/30 06:28:12;;;;;;;5.77;4.97;;;;;;;;;;4999583;28;20204;-54
2022/04/30 06:30:39;;;;;;;6.23;5.00;;;;;;;;;;5000129;28;20715;-53
2022/04/30 06:33:05;;;;;;;6.07;5.40;;;;;;;;;;4995431;28;20229;-53
2022/04/30 06:35:32;;;;;;;4.97;4.47;;;;;;;;;;4999104;28;20201;-53
2022/04/30 06:37:58;;;;;;;7.47;5.97;;;;;;;;;;4981664;28;20599;-54
2022/04/30 06:40:27;;;;;;;7.83;5.20;;;;;;;;;;5003048;28;20182;-53
2022/04/30 06:42:53;;;;;;;6.03;4.97;;;;;;;;;;5005280;28;20178;-53
2022/04/30 06:45:22;;;;;;;6.50;5.13;;;;;;;;;;5009420;28;20201;-53
2022/04/30 06:47:49;;;;;;;5.90;5.30;;;;;;;;;;5023437;28;20170;-53
2022/04/30 06:50:15;;;;;;;5.40;4.90;;;;;;;;;;5008035;28;20198;-54
2022/04/30 06:58:10;;;;;;;5.80;5.30;;;;;;;;;;4997497;28;20197;-53
2022/04/30 07:03:24;;;;;;;8.37;5.10;;;;;;;;;;5004352;28;20217;-53
2022/04/30 07:06:03;;;;;;;6.77;5.43;;;;;;;;;;5006791;28;20182;-53
2022/04/30 07:08:36;;;;;;;8.83;5.27;;;;;;;;;;4997673;28;20201;-53
2022/04/30 07:11:02;;;;;;;5.63;4.97;;;;;;;;;;5020319;28;20186;-53
2022/04/30 07:13:30;;;;;;;6.33;5.57;;;;;;;;;;5011114;28;20183;-53
2022/04/30 07:15:59;;;;;;;6.60;5.30;;;;;;;;;;5011045;28;20543;-53
2022/04/30 07:18:26;;;;;;;7.90;5.80;;;;;;;;;;5001611;28;20194;-53
2022/04/30 07:20:55;;;;;;;10.07;5.93;;;;;;;;;;5027634;28;20205;-54
2022/04/30 07:23:21;;;;;;;7.30;5.97;;;;;;;;;;5010058;28;20252;-53
2022/04/30 07:25:48;;;;;;;7.07;6.37;;;;;;;;;;5012207;28;20804;-53
2022/04/30 07:28:15;;;;;;;6.40;5.73;;;;;;;;;;5026375;28;20190;-53
2022/04/30 07:30:41;;;;;;;8.17;5.93;;;;;;;;;;5004110;28;20175;-53
2022/04/30 07:33:07;;;;;;;6.33;5.80;;;;;;;;;;4999317;28;20335;-53
2022/04/30 07:35:33;;;;;;;8.23;6.67;;;;;;;;;;5011235;28;20182;-53
2022/04/30 07:37:59;;;;;;;6.93;6.33;;;;;;;;;;5009979;28;20744;-53
2022/04/30 07:40:25;;;;;;;7.63;6.50;;;;;;;;;;5005847;28;20190;-53
2022/04/30 07:42:52;;;;;;;8.47;6.93;;;;;;;;;;5010327;28;20281;-53
2022/04/30 07:45:18;;;;;;;6.83;6.23;;;;;;;;;;5008432;28;20232;-53
2022/04/30 07:47:45;;;;;;;7.53;6.83;;;;;;;;;;5012217;28;20230;-53
2022/04/30 07:50:12;;;;;;;6.70;6.10;;;;;;;;;;5008975;28;20209;-53
2022/04/30 07:52:42;;;;;;;7.00;6.40;;;;;;;;;;5004165;28;20191;-53
2022/04/30 07:55:11;;;;;;;6.83;6.23;;;;;;;;;;4991347;28;20175;-53
2022/04/30 07:57:37;;;;;;;8.87;6.40;;;;;;;;;;4997114;28;20187;-53
2022/04/30 08:00:04;;;;;;;7.50;6.80;;;;;;;;;;5010242;28;20206;-53
2022/04/30 08:02:30;;;;;;;5.83;5.33;;;;;;;;;;5008159;28;20290;-53
2022/04/30 08:04:58;;;;;;;6.50;5.20;;;;;;;;;;5010424;28;20752;-54
2022/04/30 08:07:24;;;;;;;6.80;5.80;;;;;;;;;;5011336;28;20182;-53
2022/04/30 08:09:53;;;;;;;5.83;5.30;;;;;;;;;;5012029;28;20637;-53
2022/04/30 08:12:31;;;;;;;6.67;6.07;;;;;;;;;;5005128;28;20794;-52
2022/04/30 08:15:00;;;;;;;8.57;5.97;;;;;;;;;;5006285;28;20273;-53
2022/04/30 08:17:33;;;;;;;6.73;5.40;;;;;;;;;;5009160;28;20201;-54
2022/04/30 08:19:59;;;;;;;6.07;5.20;;;;;;;;;;5008363;28;20190;-54
2022/04/30 08:22:26;;;;;;;8.53;5.63;;;;;;;;;;5009693;28;20681;-53
2022/04/30 08:24:54;;;;;;;6.70;5.80;;;;;;;;;;4992595;28;20194;-53
2022/04/30 08:27:22;;;;;;;5.67;4.87;;;;;;;;;;5005437;28;20191;-53
2022/04/30 08:29:48;;;;;;;5.90;5.30;;;;;;;;;;5008322;28;20515;-53
2022/04/30 08:32:15;;;;;;;6.27;5.17;;;;;;;;;;5009892;28;20210;-53
2022/04/30 08:34:42;;;;;;;7.67;4.67;;;;;;;;;;5008320;28;20559;-53
2022/04/30 08:37:08;;;;;;;5.67;4.73;;;;;;;;;;5009394;28;20190;-53
2022/04/30 08:39:34;;;;;;;4.60;4.20;;;;;;;;;;5007769;28;20305;-53
2022/04/30 08:42:02;;;;;;;5.17;4.70;;;;;;;;;;5007349;28;20201;-53
2022/04/30 08:44:31;;;;;;;5.87;4.67;;;;;;;;;;5002404;28;20294;-53
2022/04/30 08:46:58;;;;;;;4.70;4.30;;;;;;;;;;5023992;28;20182;-53
2022/04/30 08:49:24;;;;;;;4.53;4.13;;;;;;;;;;5000818;28;20209;-53
2022/04/30 08:51:50;;;;;;;4.17;3.87;;;;;;;;;;5004055;28;20725;-52
2022/04/30 08:54:17;;;;;;;3.80;3.20;;;;;;;;;;5000587;28;20269;-53
2022/04/30 08:56:51;;;;;;;4.67;3.83;;;;;;;;;;5008713;28;20193;-52
2022/04/30 08:59:18;;;;;;;6.13;3.40;;;;;;;;;;4995632;28;20193;-52
2022/04/30 09:01:45;;;;;;;3.13;2.80;;;;;;;;;;5007929;28;20661;-52
2022/04/30 09:04:12;;;;;;;3.37;3.07;;;;;;;;;;5006968;28;20629;-54
2022/04/30 09:06:47;;;;;;;3.13;2.87;;;;;;;;;;5008375;28;20277;-53
2022/04/30 09:09:23;;;;;;;4.93;3.67;;;;;;;;;;5008618;28;20190;-52
2022/04/30 09:11:49;;;;;;;3.43;3.03;;;;;;;;;;5003813;28;20178;-53
2022/04/30 09:14:25;;;;;;;4.50;3.50;;;;;;;;;;4998836;28;20189;-52
2022/04/30 09:17:12;;;;;;;5.67;3.30;;;;;;;;;;5020553;28;20186;-53
2022/04/30 09:19:53;;;;;;;5.97;3.47;;;;;;;;;;4995741;28;20269;-53
2022/04/30 09:22:29;;;;;;;9.60;4.17;;;;;;;;;;5002363;28;20187;-52
2022/04/30 09:24:55;;;;;;;5.03;3.53;;;;;;;;;;5006689;28;20289;-54
2022/04/30 09:27:21;;;;;;;3.87;3.47;;;;;;;;;;5006150;28;20187;-54
2022/04/30 09:29:48;;;;;;;6.23;3.40;;;;;;;;;;5009248;28;20593;-54
2022/04/30 09:32:21;;;;;;;4.00;3.57;;;;;;;;;;5005037;28;20199;-55
2022/04/30 09:37:42;;;;;;;4.37;3.70;;;;;;;;;;5003919;28;20184;-53
2022/04/30 09:40:15;;;;;;;4.90;4.43;;;;;;;;;;5009752;28;20159;-53
2022/04/30 09:42:42;;;;;;;4.60;4.20;;;;;;;;;;5001958;28;20270;-54
2022/04/30 09:45:09;;;;;;;5.27;3.50;;;;;;;;;;5000109;28;20614;-54
2022/04/30 09:47:35;;;;;;;4.40;4.00;;;;;;;;;;5004404;28;20186;-54
2022/04/30 09:55:35;;;;;;;4.23;3.83;;;;;;;;;;4998397;28;20204;-53
2022/04/30 09:58:03;;;;;;;4.30;3.87;;;;;;;;;;5005085;28;20190;-53
2022/04/30 10:00:33;;;;;;;5.23;4.27;;;;;;;;;;5008666;28;20829;-53
2022/04/30 10:03:02;;;;;;;4.60;4.20;;;;;;;;;;5005044;28;20193;-53
2022/04/30 10:05:29;;;;;;;3.73;3.50;;;;;;;;;;5007806;28;20212;-54
2022/04/30 10:07:56;;;;;;;4.53;3.80;;;;;;;;;;5001970;28;20194;-53
2022/04/30 10:10:24;;;;;;;4.85;4.30;;;;;;;;;;4988116;28;21093;-53
2022/04/30 10:13:07;;;;;;;5.33;4.33;;;;;;;;;;4997364;28;20653;-53
2022/04/30 10:15:53;;;;;;;4.13;3.83;;;;;;;;;;5004285;28;21195;-53
2022/04/30 10:18:24;;;;;;;4.73;4.17;;;;;;;;;;5003821;28;20249;-53
2022/04/30 10:20:51;;;;;;;4.40;3.80;;;;;;;;;;5006295;28;20190;-53
2022/04/30 10:23:17;;;;;;;4.60;4.20;;;;;;;;;;5006921;28;20624;-52
2022/04/30 10:25:46;;;;;;;4.10;3.67;;;;;;;;;;5005541;28;20616;-53
2022/04/30 10:28:21;;;;;;;3.70;3.40;;;;;;;;;;5001935;28;20184;-54
2022/04/30 10:31:04;;;;;;;4.20;3.80;;;;;;;;;;5006807;28;20182;-54
2022/04/30 10:33:31;;;;;;;3.47;3.17;;;;;;;;;;5005622;28;20301;-55
2022/04/30 10:36:10;;;;;;;4.37;3.93;;;;;;;;;;5008898;28;20195;-55
2022/04/30 10:38:37;;;;;;;4.47;4.07;;;;;;;;;;5007892;28;20178;-55
2022/04/30 10:41:04;;;;;;;4.47;4.07;;;;;;;;;;5009200;28;20174;-55
2022/04/30 10:43:32;;;;;;;4.27;3.97;;;;;;;;;;5003190;28;20233;-55
2022/04/30 10:45:59;;;;;;;4.43;3.93;;;;;;;;;;5007145;28;20182;-55
2022/04/30 10:48:25;;;;;;;6.80;3.80;;;;;;;;;;5007553;28;20181;-56
2022/04/30 10:51:04;;;;;;;5.40;4.13;;;;;;;;;;5002844;28;20179;-55
2022/04/30 10:53:31;;;;;;;5.23;3.83;;;;;;;;;;4997968;28;20237;-54
2022/04/30 10:55:57;;;;;;;3.93;3.53;;;;;;;;;;5008476;28;20556;-53
2022/04/30 10:58:27;;;;;;;4.20;3.87;;;;;;;;;;4998678;28;20198;-53
2022/04/30 11:00:54;;;;;;;5.70;3.57;;;;;;;;;;4998232;28;20178;-53
2022/04/30 11:03:27;;;;;;;4.03;3.57;;;;;;;;;;4996492;28;20541;-53
2022/04/30 11:05:56;;;;;;;3.97;3.67;;;;;;;;;;5001320;28;20179;-53
2022/04/30 11:08:23;;;;;;;6.43;3.80;;;;;;;;;;5003899;28;20615;-53
2022/04/30 11:10:52;;;;;;;4.70;3.60;;;;;;;;;;5008038;28;20183;-53
2022/04/30 11:13:19;;;;;;;4.23;3.73;;;;;;;;;;5002671;28;20701;-54
2022/04/30 11:15:45;;;;;;;4.03;3.73;;;;;;;;;;4988711;28;20210;-53
2022/04/30 11:18:11;;;;;;;4.20;3.80;;;;;;;;;;4997322;28;20249;-54
2022/04/30 11:20:38;;;;;;;6.93;3.92;;;;;;;;;;4988295;28;20413;-54
2022/04/30 11:23:04;;;;;;;7.70;4.00;;;;;;;;;;5003662;28;20712;-54
2022/04/30 11:25:35;;;;;;;7.73;4.30;;;;;;;;;;4988717;28;20585;-53
2022/04/30 11:28:05;;;;;;;5.27;4.30;;;;;;;;;;5000011;28;20194;-53
2022/04/30 11:30:34;;;;;;;4.70;3.80;;;;;;;;;;5007246;28;20580;-54
2022/04/30 11:33:01;;;;;;;4.77;4.10;;;;;;;;;;5003520;28;20233;-54
2022/04/30 11:35:27;;;;;;;5.30;4.10;;;;;;;;;;4990234;28;20210;-53
2022/04/30 11:37:54;;;;;;;4.77;3.53;;;;;;;;;;4989270;28;20186;-53
2022/04/30 11:40:22;;;;;;;3.90;3.60;;;;;;;;;;4983460;28;20541;-53
2022/04/30 11:42:57;;;;;;;5.87;3.57;;;;;;;;;;4993166;28;20191;-53
2022/04/30 11:45:24;;;;;;;4.83;3.60;;;;;;;;;;4994341;28;20281;-53
2022/04/30 11:47:50;;;;;;;3.67;3.37;;;;;;;;;;5003011;28;20192;-55
2022/04/30 11:50:17;;;;;;;3.47;3.17;;;;;;;;;;4999637;28;20887;-54
2022/04/30 11:52:43;;;;;;;3.77;3.40;;;;;;;;;;5002591;28;20596;-54
2022/04/30 11:55:10;;;;;;;3.77;3.47;;;;;;;;;;5003195;28;20524;-54
2022/04/30 11:57:41;;;;;;;6.53;6.03;;;;;;;;;;4998941;28;20631;-54
2022/04/30 12:00:11;;;;;;;3.37;3.10;;;;;;;;;;5010245;28;20186;-55
2022/04/30 12:02:39;;;;;;;3.80;3.50;;;;;;;;;;5004171;28;20189;-55
2022/04/30 12:05:06;;;;;;;4.30;3.57;;;;;;;;;;4991410;28;20208;-55
2022/04/30 12:07:45;;;;;;;3.50;3.20;;;;;;;;;;5000290;28;20183;-55
2022/04/30 12:10:15;;;;;;;4.10;3.30;;;;;;;;;;5000258;28;20518;-55
2022/04/30 12:12:44;;;;;;;8.73;3.30;;;;;;;;;;5006915;28;20177;-55
2022/04/30 12:15:33;;;;;;;3.70;2.90;;;;;;;;;;4999018;28;20210;-54
2022/04/30 12:26:27;;;;;;;5.60;4.00;;;;;;;;;;5005896;28;20197;-52
2022/04/30 12:28:53;;;;;;;7.20;2.70;;;;;;;;;;5005565;28;20179;-53
2022/04/30 12:31:20;;;;;;;6.57;3.07;;;;;;;;;;5004672;28;20287;-53
2022/04/30 12:33:50;;;;;;;4.83;3.30;;;;;;;;;;5002478;28;20209;-54
2022/04/30 12:36:16;;;;;;;6.23;3.27;;;;;;;;;;5008659;28;20178;-53
2022/04/30 12:38:55;;;;;;;5.73;2.87;;;;;;;;;;4997508;28;20186;-52
2022/04/30 12:41:23;;;;;;;4.67;3.20;;;;;;;;;;5001492;28;20714;-53
2022/04/30 12:43:49;;;;;;;5.07;3.13;;;;;;;;;;5006832;28;20186;-54
2022/04/30 12:46:21;;;;;;;3.23;2.43;;;;;;;;;;5007059;28;20178;-54
2022/04/30 12:48:48;;;;;;;3.13;2.83;;;;;;;;;;5003784;28;21446;-54
2022/04/30 12:51:16;;;;;;;4.07;2.80;;;;;;;;;;5006441;28;20592;-53
2022/04/30 12:53:42;;;;;;;3.20;2.70;;;;;;;;;;5006374;28;20193;-53
2022/04/30 12:56:08;;;;;;;2.73;2.53;;;;;;;;;;5008295;28;20194;-53
2022/04/30 12:58:34;;;;;;;2.47;2.27;;;;;;;;;;5006623;28;20237;-54
2022/04/30 13:01:00;;;;;;;2.80;2.63;;;;;;;;;;5009045;28;20186;-53
2022/04/30 13:03:28;;;;;;;3.30;2.80;;;;;;;;;;5006247;28;20195;-55
2022/04/30 13:05:54;;;;;;;2.70;2.50;;;;;;;;;;5006986;28;20210;-55
2022/04/30 13:08:23;;;;;;;5.93;2.83;;;;;;;;;;5004147;28;20188;-54
2022/04/30 13:13:34;;;;;;;2.63;2.43;;;;;;;;;;5003900;28;20331;-52
2022/04/30 13:16:05;;;;;;;3.42;3.00;;;;;;;;;;5007626;28;20494;-54
2022/04/30 13:18:33;;;;;;;3.33;3.00;;;;;;;;;;5002995;28;20186;-54
2022/04/30 13:20:59;;;;;;;5.33;3.83;;;;;;;;;;5005385;28;20560;-54
2022/04/30 13:23:25;;;;;;;3.93;3.37;;;;;;;;;;5002235;28;20214;-54
2022/04/30 13:25:51;;;;;;;3.30;3.00;;;;;;;;;;5006516;28;20226;-54
2022/04/30 13:28:21;;;;;;;3.90;3.40;;;;;;;;;;5018987;28;20734;-54
2022/04/30 13:30:47;;;;;;;4.90;3.60;;;;;;;;;;5004420;28;20266;-53
2022/04/30 13:33:14;;;;;;;4.60;3.83;;;;;;;;;;5003588;28;20226;-54
2022/04/30 13:35:40;;;;;;;3.97;3.67;;;;;;;;;;5004904;28;20625;-54
2022/04/30 13:38:13;;;;;;;4.00;3.63;;;;;;;;;;5002876;28;20194;-54
2022/04/30 13:40:39;;;;;;;17.83;11.13;;;;;;;;;;5005364;28;20522;-54
2022/04/30 13:43:07;;;;;;;16.80;8.77;;;;;;;;;;5001388;28;20179;-56
2022/04/30 13:45:33;;;;;;;3.80;3.50;;;;;;;;;;5005324;28;21201;-55
2022/04/30 13:47:59;;;;;;;4.63;3.20;;;;;;;;;;5004714;28;20183;-54
2022/04/30 13:50:25;;;;;;;5.23;3.40;;;;;;;;;;5000567;28;20277;-54
2022/04/30 13:52:51;;;;;;;3.23;2.80;;;;;;;;;;5004725;28;20286;-54
2022/04/30 13:55:17;;;;;;;3.80;3.00;;;;;;;;;;5005549;28;20269;-54
2022/04/30 13:57:43;;;;;;;2.97;2.63;;;;;;;;;;5004332;28;20559;-54
2022/04/30 14:00:19;;;;;;;5.60;5.13;;;;;;;;;;5002394;28;20592;-54
2022/04/30 14:02:45;;;;;;;3.10;2.80;;;;;;;;;;5004677;28;20220;-54
2022/04/30 14:05:12;;;;;;;2.63;2.43;;;;;;;;;;5002278;28;20210;-54
2022/04/30 14:07:38;;;;;;;3.80;2.47;;;;;;;;;;5003654;28;20184;-54
2022/04/30 14:10:07;;;;;;;3.10;2.80;;;;;;;;;;5005398;28;20176;-55
2022/04/30 14:12:34;;;;;;;5.07;2.70;;;;;;;;;;5003507;28;20176;-55
2022/04/30 14:15:00;;;;;;;5.70;2.63;;;;;;;;;;5003692;28;20637;-55
2022/04/30 14:20:11;;;;;;;5.73;5.23;;;;;;;;;;5000880;28;20204;-55
2022/04/30 14:22:38;;;;;;;4.03;2.60;;;;;;;;;;5001000;28;20190;-54
2022/04/30 14:25:07;;;;;;;4.20;2.50;;;;;;;;;;5003639;28;20813;-55
2022/04/30 14:27:34;;;;;;;3.10;2.80;;;;;;;;;;5000040;28;20183;-54
2022/04/30 14:30:01;;;;;;;2.80;2.60;;;;;;;;;;5000250;28;20182;-53
2022/04/30 14:32:30;;;;;;;3.60;3.20;;;;;;;;;;4999470;28;20218;-54
2022/04/30 14:34:58;;;;;;;3.97;2.80;;;;;;;;;;4991077;28;20236;-54
2022/04/30 14:37:25;;;;;;;4.20;2.83;;;;;;;;;;5000624;28;20193;-54
2022/04/30 14:39:51;;;;;;;3.33;3.03;;;;;;;;;;5001937;28;20193;-54
2022/04/30 14:42:18;;;;;;;6.93;3.20;;;;;;;;;;5000642;28;20195;-54
2022/04/30 14:44:44;;;;;;;5.83;3.93;;;;;;;;;;5002311;28;20182;-54
2022/04/30 14:47:10;;;;;;;6.13;3.77;;;;;;;;;;5003362;28;20182;-53
2022/04/30 14:49:36;;;;;;;4.50;3.30;;;;;;;;;;5001162;28;20170;-53
2022/04/30 14:52:03;;;;;;;3.23;3.00;;;;;;;;;;5004042;28;20186;-53
2022/04/30 14:54:29;;;;;;;4.53;3.73;;;;;;;;;;4996052;28;20188;-54
2022/04/30 14:56:55;;;;;;;4.00;3.60;;;;;;;;;;5004576;28;20189;-53
2022/04/30 14:59:21;;;;;;;4.90;3.50;;;;;;;;;;4999653;28;20193;-53
2022/04/30 15:01:55;;;;;;;4.27;3.87;;;;;;;;;;5000544;28;20190;-53
2022/04/30 15:04:22;;;;;;;3.63;3.33;;;;;;;;;;4992157;28;20218;-53
2022/04/30 15:06:48;;;;;;;4.70;3.33;;;;;;;;;;5006838;28;20603;-54
2022/04/30 15:09:14;;;;;;;3.90;3.57;;;;;;;;;;5006621;28;20178;-53
2022/04/30 15:11:43;;;;;;;4.40;3.43;;;;;;;;;;5003329;28;20179;-53
2022/04/30 15:14:09;;;;;;;4.20;3.27;;;;;;;;;;4998775;28;20188;-53
2022/04/30 15:16:35;;;;;;;4.03;3.20;;;;;;;;;;5002390;28;20638;-55
2022/04/30 15:19:02;;;;;;;5.07;3.30;;;;;;;;;;4997164;28;20192;-54
2022/04/30 15:21:29;;;;;;;9.90;3.80;;;;;;;;;;5002285;28;20197;-53
2022/04/30 15:23:55;;;;;;;3.63;3.33;;;;;;;;;;4986624;28;20190;-53
2022/04/30 15:26:21;;;;;;;3.87;3.43;;;;;;;;;;4998614;28;20189;-53
2022/04/30 15:28:47;;;;;;;3.43;3.13;;;;;;;;;;5002137;28;20220;-53
2022/04/30 15:31:13;;;;;;;4.63;3.53;;;;;;;;;;5003580;28;20736;-57
2022/04/30 15:33:39;;;;;;;4.50;3.80;;;;;;;;;;5007125;28;20218;-55
2022/04/30 15:36:06;;;;;;;7.50;4.63;;;;;;;;;;5007361;28;20180;-56
2022/04/30 15:38:40;;;;;;;4.20;3.80;;;;;;;;;;5021022;28;20652;-55
2022/04/30 15:41:08;;;;;;;6.53;4.47;;;;;;;;;;5001938;28;20662;-55
2022/04/30 15:43:41;;;;;;;5.23;4.20;;;;;;;;;;5003908;28;20226;-54